createdAt,value
2018-10-04T00:00:30.684Z,16.40
2018-10-04T00:03:01.390Z,16.33
2018-10-04T00:05:31.935Z,16.03
2018-10-04T00:08:03.012Z,14.77
2018-10-04T00:10:33.914Z,13.87
2018-10-04T00:13:05.490Z,15.87
2018-10-04T00:15:35.958Z,16.33
2018-10-04T00:18:06.776Z,16.13
2018-10-04T00:20:37.521Z,14.47
2018-10-04T00:23:08.281Z,15.17
2018-10-04T00:25:39.507Z,21.90
2018-10-04T00:28:10.068Z,14.73
2018-10-04T00:30:40.803Z,16.17
2018-10-04T00:33:11.404Z,13.90
2018-10-04T00:35:42.407Z,16.57
2018-10-04T00:38:13.164Z,13.80
2018-10-04T00:40:44.077Z,16.40
2018-10-04T00:43:15.162Z,19.60
2018-10-04T00:45:45.976Z,17.30
2018-10-04T00:48:16.616Z,14.93
2018-10-04T00:50:47.333Z,16.37
2018-10-04T00:53:18.119Z,15.83
2018-10-04T00:55:49.156Z,21.77
2018-10-04T00:58:19.814Z,16.40
2018-10-04T01:00:50.301Z,13.90
2018-10-04T01:03:21.140Z,17.30
2018-10-04T01:05:52.040Z,15.57
2018-10-04T01:08:23.190Z,16.70
2018-10-04T01:10:53.697Z,14.87
2018-10-04T01:13:24.309Z,14.13
2018-10-04T01:15:55.089Z,18.97
2018-10-04T01:18:36.008Z,15.10
2018-10-04T01:21:07.367Z,16.80
2018-10-04T01:23:38.845Z,19.27
2018-10-04T01:26:09.514Z,14.37
2018-10-04T01:28:39.983Z,14.10
2018-10-04T01:31:10.763Z,16.93
2018-10-04T01:33:41.321Z,12.97
2018-10-04T01:36:12.192Z,14.83
2018-10-04T01:38:43.114Z,13.90
2018-10-04T01:41:14.279Z,15.87
2018-10-04T01:43:45.557Z,14.23
2018-10-04T01:46:16.419Z,15.03
2018-10-04T01:48:47.079Z,13.17
2018-10-04T01:51:18.048Z,12.50
2018-10-04T01:53:48.779Z,20.83
2018-10-04T01:56:20.576Z,12.83
2018-10-04T01:58:52.028Z,15.77
2018-10-04T02:01:23.000Z,16.13
2018-10-04T02:03:53.742Z,16.93
2018-10-04T02:06:24.421Z,14.27
2018-10-04T02:08:55.017Z,17.73
2018-10-04T02:11:26.381Z,15.80
2018-10-04T02:13:56.963Z,16.67
2018-10-04T02:16:28.086Z,14.10
2018-10-04T02:18:59.929Z,15.37
2018-10-04T02:21:30.205Z,16.70
2018-10-04T02:24:00.819Z,11.80
2018-10-04T02:26:31.445Z,20.20
2018-10-04T02:29:02.061Z,13.80
2018-10-04T02:31:32.568Z,14.73
2018-10-04T02:34:03.442Z,15.57
2018-10-04T02:36:34.057Z,14.40
2018-10-04T02:39:05.512Z,18.87
2018-10-04T02:41:36.194Z,13.57
2018-10-04T02:44:06.818Z,13.23
2018-10-04T02:46:37.744Z,13.63
2018-10-04T02:49:08.356Z,14.87
2018-10-04T02:51:38.917Z,13.27
2018-10-04T02:54:12.949Z,13.00
2018-10-04T02:56:48.756Z,12.50
2018-10-04T02:59:19.678Z,14.13
2018-10-04T03:01:50.436Z,15.93
2018-10-04T03:04:22.336Z,11.77
2018-10-04T03:06:53.280Z,14.10
2018-10-04T03:09:24.240Z,12.83
2018-10-04T03:11:55.337Z,16.73
2018-10-04T03:14:26.303Z,10.17
2018-10-04T03:16:56.876Z,11.57
2018-10-04T03:19:28.100Z,14.17
2018-10-04T03:22:00.079Z,10.87
2018-10-04T03:24:30.767Z,13.53
2018-10-04T03:27:01.350Z,14.57
2018-10-04T03:29:33.619Z,13.83
2018-10-04T03:32:04.219Z,13.17
2018-10-04T03:34:35.134Z,14.70
2018-10-04T03:37:06.390Z,13.90
2018-10-04T03:39:36.955Z,14.60
2018-10-04T03:42:08.385Z,17.03
2018-10-04T03:44:39.083Z,13.53
2018-10-04T03:47:09.819Z,15.73
2018-10-04T03:49:40.641Z,16.60
2018-10-04T03:52:11.450Z,15.80
2018-10-04T03:54:43.344Z,14.00
2018-10-04T03:57:15.467Z,16.43
2018-10-04T03:59:47.120Z,14.80
2018-10-04T04:02:17.698Z,14.70
2018-10-04T04:04:48.305Z,13.47
2018-10-04T04:07:18.923Z,14.27
2018-10-04T04:09:49.529Z,14.57
2018-10-04T04:12:20.840Z,12.50
2018-10-04T04:14:51.519Z,14.27
2018-10-04T04:17:22.267Z,13.90
2018-10-04T04:19:53.127Z,14.10
2018-10-04T04:22:23.847Z,13.33
2018-10-04T04:24:54.278Z,13.83
2018-10-04T04:27:25.082Z,14.40
2018-10-04T04:29:55.707Z,11.83
2018-10-04T04:32:26.602Z,12.73
2018-10-04T04:34:57.464Z,13.13
2018-10-04T04:37:28.296Z,13.53
2018-10-04T04:39:59.029Z,13.63
2018-10-04T04:42:29.732Z,13.93
2018-10-04T04:45:00.505Z,16.13
2018-10-04T04:47:31.039Z,12.33
2018-10-04T04:50:01.476Z,15.47
2018-10-04T04:52:32.126Z,15.40
2018-10-04T04:55:21.361Z,17.30
2018-10-04T04:57:53.143Z,19.33
2018-10-04T05:00:24.856Z,17.90
2018-10-04T05:02:55.753Z,13.33
2018-10-04T05:05:27.028Z,15.67
2018-10-04T05:07:59.587Z,13.13
2018-10-04T05:10:30.968Z,14.10
2018-10-04T05:13:03.744Z,14.40
2018-10-04T05:15:34.337Z,15.53
2018-10-04T05:18:05.065Z,17.97
2018-10-04T05:20:35.656Z,16.80
2018-10-04T05:23:07.226Z,14.10
2018-10-04T05:25:38.186Z,15.87
2018-10-04T05:28:08.888Z,13.50
2018-10-04T05:30:39.398Z,15.87
2018-10-04T05:33:09.972Z,14.23
2018-10-04T05:35:41.330Z,15.97
2018-10-04T05:38:12.522Z,15.70
2018-10-04T05:40:43.497Z,16.80
2018-10-04T05:43:14.600Z,15.33
2018-10-04T05:45:45.847Z,12.90
2018-10-04T05:48:16.735Z,15.67
2018-10-04T05:50:47.673Z,12.77
2018-10-04T05:53:18.697Z,14.33
2018-10-04T05:55:50.037Z,17.27
2018-10-04T05:58:21.035Z,13.87
2018-10-04T06:00:51.895Z,13.70
2018-10-04T06:03:22.880Z,13.97
2018-10-04T06:05:53.424Z,13.70
2018-10-04T06:08:25.242Z,12.83
2018-10-04T06:10:55.861Z,14.40
2018-10-04T06:13:27.379Z,11.57
2018-10-04T06:15:58.049Z,9.90
2018-10-04T06:18:28.318Z,14.63
2018-10-04T06:20:58.842Z,14.13
2018-10-04T06:23:28.989Z,17.17
2018-10-04T06:26:01.058Z,12.77
2018-10-04T06:28:31.192Z,13.60
2018-10-04T06:31:01.712Z,13.97
2018-10-04T06:33:31.962Z,13.33
2018-10-04T06:36:02.170Z,11.83
2018-10-04T06:38:37.236Z,19.27
2018-10-04T06:41:07.467Z,11.97
2018-10-04T06:43:37.893Z,13.13
2018-10-04T06:46:08.330Z,14.87
2018-10-04T06:48:38.673Z,12.73
2018-10-04T06:51:08.804Z,14.30
2018-10-04T06:53:38.829Z,14.63
2018-10-04T06:56:08.989Z,14.33
2018-10-04T06:58:39.131Z,13.07
2018-10-04T07:01:09.364Z,11.93
2018-10-04T07:03:40.493Z,15.27
2018-10-04T07:06:10.489Z,13.43
2018-10-04T07:08:40.503Z,15.27
2018-10-04T07:11:10.793Z,14.73
2018-10-04T07:13:41.060Z,14.80
2018-10-04T07:16:11.376Z,17.90
2018-10-04T07:18:41.619Z,12.33
2018-10-04T07:21:11.900Z,16.83
2018-10-04T07:23:42.052Z,12.97
2018-10-04T07:26:12.778Z,16.10
2018-10-04T07:28:43.049Z,11.87
2018-10-04T07:31:13.433Z,13.60
2018-10-04T07:33:43.951Z,16.43
2018-10-04T07:36:14.607Z,18.23
2018-10-04T07:38:44.953Z,12.10
2018-10-04T07:41:15.293Z,13.30
2018-10-04T07:43:45.432Z,15.77
2018-10-04T07:46:15.478Z,11.03
2018-10-04T07:48:45.998Z,17.40
2018-10-04T07:51:16.030Z,13.13
2018-10-04T07:53:46.637Z,15.00
2018-10-04T07:56:16.754Z,15.53
2018-10-04T07:58:47.170Z,15.33
2018-10-04T08:01:17.188Z,13.13
2018-10-04T08:03:47.242Z,12.93
2018-10-04T08:06:17.574Z,15.73
2018-10-04T08:08:47.983Z,19.07
2018-10-04T08:11:18.076Z,15.63
2018-10-04T08:13:48.427Z,17.10
2018-10-04T08:16:18.747Z,13.70
2018-10-04T08:18:48.896Z,15.83
2018-10-04T08:21:19.298Z,16.77
2018-10-04T08:23:49.390Z,14.73
2018-10-04T08:26:19.418Z,18.97
2018-10-04T08:28:49.480Z,17.90
2018-10-04T08:31:19.585Z,15.13
2018-10-04T08:33:49.738Z,13.90
2018-10-04T08:36:19.702Z,12.50
2018-10-04T08:38:49.788Z,13.87
2018-10-04T08:41:20.239Z,12.53
2018-10-04T08:43:50.356Z,17.67
2018-10-04T08:46:20.527Z,14.57
2018-10-04T08:48:50.608Z,12.27
2018-10-04T08:51:24.759Z,15.23
2018-10-04T08:53:54.839Z,10.63
2018-10-04T08:56:25.438Z,14.00
2018-10-04T08:58:56.338Z,14.27
2018-10-04T09:01:26.468Z,18.03
2018-10-04T09:04:02.669Z,16.93
2018-10-04T09:06:34.536Z,13.07
2018-10-04T09:09:05.189Z,13.23
2018-10-04T09:11:35.301Z,14.37
2018-10-04T09:14:05.466Z,14.03
2018-10-04T09:16:35.590Z,15.90
2018-10-04T09:19:05.918Z,15.30
2018-10-04T09:21:35.966Z,11.07
2018-10-04T09:24:06.403Z,13.43
2018-10-04T09:26:36.406Z,13.43
2018-10-04T09:29:10.568Z,12.77
2018-10-04T09:31:44.383Z,12.73
2018-10-04T09:34:14.493Z,18.50
2018-10-04T09:36:44.577Z,12.83
2018-10-04T09:39:14.606Z,13.77
2018-10-04T09:41:44.728Z,14.37
2018-10-04T09:44:14.918Z,13.27
2018-10-04T09:46:45.264Z,15.83
2018-10-04T09:49:15.364Z,11.90
2018-10-04T09:51:50.691Z,15.53
2018-10-04T09:54:25.949Z,12.80
2018-10-04T09:56:56.129Z,12.90
2018-10-04T09:59:26.402Z,15.13
2018-10-04T10:02:01.623Z,11.80
2018-10-04T10:04:31.982Z,16.27
2018-10-04T10:07:02.079Z,14.13
2018-10-04T10:09:32.203Z,14.93
2018-10-04T10:12:02.685Z,16.83
2018-10-04T10:14:32.818Z,16.07
2018-10-04T10:17:03.063Z,16.07
2018-10-04T10:19:33.241Z,13.10
2018-10-04T10:22:03.293Z,14.43
2018-10-04T10:24:33.391Z,17.70
2018-10-04T10:27:03.682Z,16.87
2018-10-04T10:29:33.806Z,15.10
2018-10-04T10:32:03.892Z,17.23
2018-10-04T10:34:33.915Z,14.63
2018-10-04T10:37:03.954Z,15.17
2018-10-04T10:39:34.056Z,15.17
2018-10-04T10:42:04.329Z,14.70
2018-10-04T10:44:34.525Z,12.40
2018-10-04T10:47:04.772Z,11.50
2018-10-04T10:49:34.795Z,17.57
2018-10-04T10:52:05.099Z,14.63
2018-10-04T10:54:35.544Z,15.30
2018-10-04T10:57:05.589Z,16.40
2018-10-04T10:59:35.618Z,15.23
2018-10-04T11:02:05.746Z,16.77
2018-10-04T11:04:35.835Z,13.37
2018-10-04T11:07:06.007Z,13.77
2018-10-04T11:09:36.120Z,17.83
2018-10-04T11:12:06.230Z,14.97
2018-10-04T11:14:36.676Z,12.07
2018-10-04T11:17:07.007Z,18.57
2018-10-04T11:19:37.096Z,13.17
2018-10-04T11:22:07.168Z,13.77
2018-10-04T11:24:37.419Z,13.97
2018-10-04T11:27:07.702Z,13.90
2018-10-04T11:29:38.011Z,13.20
2018-10-04T11:32:08.361Z,12.27
2018-10-04T11:34:39.039Z,11.93
2018-10-04T11:37:09.432Z,17.10
2018-10-04T11:39:39.451Z,13.40
2018-10-04T11:42:09.749Z,11.97
2018-10-04T11:44:46.975Z,12.70
2018-10-04T11:47:22.517Z,12.03
2018-10-04T11:49:52.641Z,13.03
2018-10-04T11:52:23.907Z,12.67
2018-10-04T11:54:54.397Z,11.70
2018-10-04T11:57:24.654Z,14.23
2018-10-04T11:59:54.783Z,10.90
2018-10-04T12:02:25.229Z,13.23
2018-10-04T12:04:55.313Z,9.73
2018-10-04T12:07:25.543Z,11.97
2018-10-04T12:09:55.633Z,13.63
2018-10-04T12:12:25.692Z,11.80
2018-10-04T12:14:56.213Z,11.53
2018-10-04T12:17:26.533Z,9.10
2018-10-04T12:19:56.870Z,11.03
2018-10-04T12:22:26.957Z,13.67
2018-10-04T12:24:57.098Z,11.83
2018-10-04T12:27:27.498Z,8.73
2018-10-04T12:29:57.930Z,11.80
2018-10-04T12:32:28.065Z,15.20
2018-10-04T12:34:58.199Z,9.57
2018-10-04T12:37:28.371Z,15.30
2018-10-04T12:39:58.614Z,9.93
2018-10-04T12:42:31.882Z,9.97
2018-10-04T12:45:02.273Z,9.00
2018-10-04T12:47:32.533Z,10.13
2018-10-04T12:50:02.818Z,12.00
2018-10-04T12:52:32.940Z,10.97
2018-10-04T12:55:03.026Z,12.73
2018-10-04T12:57:33.202Z,10.10
2018-10-04T13:00:03.355Z,11.77
2018-10-04T13:02:33.417Z,12.00
2018-10-04T13:05:03.511Z,10.73
2018-10-04T13:07:33.561Z,9.90
2018-10-04T13:10:04.053Z,9.93
2018-10-04T13:12:34.283Z,11.00
2018-10-04T13:15:04.495Z,11.40
2018-10-04T13:17:34.683Z,9.77
2018-10-04T13:20:04.923Z,14.00
2018-10-04T13:22:35.020Z,12.40
2018-10-04T13:25:05.177Z,9.10
2018-10-04T13:27:35.378Z,8.03
2018-10-04T13:30:06.097Z,9.17
2018-10-04T13:32:36.239Z,12.83
2018-10-04T13:35:06.561Z,7.50
2018-10-04T13:37:36.841Z,9.83
2018-10-04T13:40:06.924Z,11.83
2018-10-04T13:42:37.020Z,7.83
2018-10-04T13:45:07.313Z,10.73
2018-10-04T13:47:37.508Z,8.17
2018-10-04T13:50:07.609Z,10.77
2018-10-04T13:52:37.702Z,8.17
2018-10-04T13:55:07.710Z,6.60
2018-10-04T13:57:38.149Z,6.77
2018-10-04T14:00:08.346Z,7.17
2018-10-04T14:02:38.673Z,7.63
2018-10-04T14:05:08.761Z,8.03
2018-10-04T14:07:38.937Z,10.17
2018-10-04T14:10:09.227Z,7.50
2018-10-04T14:12:39.328Z,9.63
2018-10-04T14:15:09.442Z,6.73
2018-10-04T14:17:39.662Z,6.83
2018-10-04T14:20:09.726Z,11.07
2018-10-04T14:22:39.857Z,7.17
2018-10-04T14:25:09.791Z,6.63
2018-10-04T14:27:40.016Z,7.60
2018-10-04T14:30:10.683Z,7.73
2018-10-04T14:32:40.839Z,9.10
2018-10-04T14:35:11.324Z,8.63
2018-10-04T14:37:41.373Z,6.33
2018-10-04T14:40:11.517Z,6.77
2018-10-04T14:42:41.615Z,7.27
2018-10-04T14:45:11.719Z,8.20
2018-10-04T14:47:42.013Z,8.57
2018-10-04T14:50:12.069Z,7.27
2018-10-04T14:52:42.290Z,6.57
2018-10-04T14:55:12.417Z,7.67
2018-10-04T14:57:42.649Z,9.37
2018-10-04T15:00:12.775Z,7.47
2018-10-04T15:02:43.134Z,8.40
2018-10-04T15:05:13.324Z,7.30
2018-10-04T15:07:43.442Z,6.63
2018-10-04T15:10:13.759Z,8.00
2018-10-04T15:12:43.915Z,7.23
2018-10-04T15:15:14.017Z,6.87
2018-10-04T15:17:44.422Z,9.23
2018-10-04T15:20:15.207Z,8.33
2018-10-04T15:22:45.538Z,7.43
2018-10-04T15:25:15.681Z,8.73
2018-10-04T15:27:45.819Z,9.00
2018-10-04T15:30:16.920Z,8.60
2018-10-04T15:32:47.219Z,7.90
2018-10-04T15:35:17.471Z,6.33
2018-10-04T15:37:47.630Z,7.43
2018-10-04T15:40:17.633Z,9.03
2018-10-04T15:42:47.710Z,9.87
2018-10-04T15:45:18.172Z,7.30
2018-10-04T15:47:48.825Z,8.70
2018-10-04T15:50:19.255Z,6.83
2018-10-04T15:52:50.420Z,7.27
2018-10-04T15:55:20.500Z,8.13
2018-10-04T15:57:50.724Z,6.07
2018-10-04T16:00:20.887Z,6.80
2018-10-04T16:02:51.478Z,9.17
2018-10-04T16:05:21.718Z,7.83
2018-10-04T16:07:52.295Z,12.30
2018-10-04T16:10:23.135Z,6.90
2018-10-04T16:12:53.618Z,8.10
2018-10-04T16:15:28.231Z,7.80
2018-10-04T16:17:58.765Z,6.03
2018-10-04T16:20:29.367Z,9.70
2018-10-04T16:22:59.601Z,7.50
2018-10-04T16:25:29.653Z,8.37
2018-10-04T16:27:59.930Z,8.73
2018-10-04T16:30:31.131Z,7.70
2018-10-04T16:33:01.746Z,8.50
2018-10-04T16:35:32.167Z,6.23
2018-10-04T16:38:02.298Z,10.90
2018-10-04T16:40:32.512Z,10.83
2018-10-04T16:43:03.124Z,9.33
2018-10-04T16:45:33.226Z,10.63
2018-10-04T16:48:04.205Z,7.07
2018-10-04T16:50:34.418Z,7.20
2018-10-04T16:53:04.518Z,8.50
2018-10-04T16:55:35.219Z,6.73
2018-10-04T16:58:05.311Z,8.43
2018-10-04T17:00:35.621Z,9.40
2018-10-04T17:03:05.755Z,6.50
2018-10-04T17:05:35.815Z,8.37
2018-10-04T17:08:05.980Z,7.13
2018-10-04T17:10:36.478Z,11.27
2018-10-04T17:13:06.998Z,9.07
2018-10-04T17:15:37.374Z,10.13
2018-10-04T17:18:07.570Z,10.70
2018-10-04T17:20:38.147Z,11.13
2018-10-04T17:23:08.327Z,9.13
2018-10-04T17:25:38.592Z,7.57
2018-10-04T17:28:09.032Z,10.20
2018-10-04T17:30:39.130Z,9.40
2018-10-04T17:33:09.287Z,11.17
2018-10-04T17:35:39.509Z,11.00
2018-10-04T17:38:09.972Z,13.00
2018-10-04T17:40:40.424Z,8.53
2018-10-04T17:43:10.894Z,7.47
2018-10-04T17:45:41.142Z,15.00
2018-10-04T17:48:11.368Z,11.03
2018-10-04T17:50:41.559Z,10.17
2018-10-04T17:53:12.891Z,7.47
2018-10-04T17:55:43.060Z,12.43
2018-10-04T17:58:13.195Z,8.07
2018-10-04T18:00:43.841Z,11.33
2018-10-04T18:03:14.047Z,11.73
2018-10-04T18:05:44.180Z,8.00
2018-10-04T18:08:14.549Z,12.70
2018-10-04T18:10:44.741Z,16.93
2018-10-04T18:13:14.939Z,10.17
2018-10-04T18:15:45.721Z,13.10
2018-10-04T18:18:15.894Z,16.67
2018-10-04T18:20:46.086Z,14.13
2018-10-04T18:23:16.323Z,14.13
2018-10-04T18:25:46.544Z,10.60
2018-10-04T18:28:16.721Z,12.53
2018-10-04T18:30:46.874Z,11.47
2018-10-04T18:33:17.592Z,11.40
2018-10-04T18:35:47.762Z,15.10
2018-10-04T18:38:18.024Z,13.53
2018-10-04T18:40:48.228Z,15.53
2018-10-04T18:43:18.475Z,14.07
2018-10-04T18:45:48.625Z,17.77
2018-10-04T18:48:18.814Z,13.40
2018-10-04T18:50:49.132Z,17.00
2018-10-04T18:53:19.562Z,12.77
2018-10-04T18:55:49.853Z,17.27
2018-10-04T18:58:20.613Z,14.77
2018-10-04T19:00:50.992Z,14.67
2018-10-04T19:03:21.162Z,14.23
2018-10-04T19:05:51.412Z,15.20
2018-10-04T19:08:21.486Z,13.20
2018-10-04T19:10:51.833Z,12.00
2018-10-04T19:13:21.999Z,11.50
2018-10-04T19:15:52.166Z,11.83
2018-10-04T19:18:22.306Z,13.70
2018-10-04T19:20:52.613Z,13.33
2018-10-04T19:23:22.725Z,16.10
2018-10-04T19:25:53.427Z,14.93
2018-10-04T19:28:23.484Z,14.50
2018-10-04T19:30:53.552Z,14.73
2018-10-04T19:33:23.580Z,15.53
2018-10-04T19:35:53.753Z,14.63
2018-10-04T19:38:24.007Z,20.77
2018-10-04T19:40:54.215Z,18.80
2018-10-04T19:43:24.422Z,18.20
2018-10-04T19:45:54.721Z,19.60
2018-10-04T19:48:24.786Z,13.90
2018-10-04T19:50:55.134Z,18.07
2018-10-04T19:53:25.341Z,17.87
2018-10-04T19:55:55.872Z,16.40
2018-10-04T19:58:26.050Z,18.90
2018-10-04T20:00:56.182Z,17.37
2018-10-04T20:03:26.700Z,15.80
2018-10-04T20:05:57.135Z,15.60
2018-10-04T20:08:27.445Z,17.23
2018-10-04T20:10:57.872Z,16.47
2018-10-04T20:13:28.071Z,17.07
2018-10-04T20:15:58.305Z,15.60
2018-10-04T20:18:28.396Z,17.07
2018-10-04T20:20:58.612Z,18.10
2018-10-04T20:23:28.812Z,19.73
2018-10-04T20:25:58.987Z,15.27
2018-10-04T20:28:29.088Z,17.97
2018-10-04T20:30:59.361Z,21.43
2018-10-04T20:33:29.571Z,16.40
2018-10-04T20:36:00.627Z,14.20
2018-10-04T20:38:30.711Z,17.93
2018-10-04T20:41:01.085Z,17.50
2018-10-04T20:43:31.210Z,18.40
2018-10-04T20:46:01.244Z,14.47
2018-10-04T20:48:32.107Z,16.13
2018-10-04T20:51:02.477Z,15.33
2018-10-04T20:53:32.707Z,16.67
2018-10-04T20:56:02.924Z,13.47
2018-10-04T20:58:32.999Z,15.00
2018-10-04T21:01:03.040Z,14.60
2018-10-04T21:03:33.249Z,13.50
2018-10-04T21:06:03.794Z,16.80
2018-10-04T21:08:33.980Z,12.60
2018-10-04T21:11:04.103Z,15.03
2018-10-04T21:13:34.427Z,15.17
2018-10-04T21:16:04.702Z,14.43
2018-10-04T21:18:34.770Z,16.70
2018-10-04T21:21:05.018Z,14.83
2018-10-04T21:23:35.837Z,14.53
2018-10-04T21:26:05.977Z,13.43
2018-10-04T21:28:36.202Z,14.53
2018-10-04T21:31:06.590Z,19.87
2018-10-04T21:33:37.461Z,13.40
2018-10-04T21:36:07.671Z,14.57
2018-10-04T21:38:38.335Z,15.17
2018-10-04T21:41:08.458Z,12.77
2018-10-04T21:43:38.929Z,15.30
2018-10-04T21:46:09.190Z,14.03
2018-10-04T21:48:39.252Z,14.43
2018-10-04T21:51:09.546Z,12.40
2018-10-04T21:53:39.712Z,14.83
2018-10-04T21:56:09.821Z,13.53
2018-10-04T21:58:40.033Z,13.23
2018-10-04T22:01:10.171Z,14.43
2018-10-04T22:03:40.702Z,15.23
2018-10-04T22:06:11.132Z,13.47
2018-10-04T22:08:41.960Z,12.90
2018-10-04T22:11:12.049Z,16.27
2018-10-04T22:13:42.151Z,12.60
2018-10-04T22:16:12.183Z,12.13
2018-10-04T22:18:42.254Z,14.83
2018-10-04T22:21:12.233Z,13.30
2018-10-04T22:23:42.356Z,12.63
2018-10-04T22:26:12.449Z,11.80
2018-10-04T22:28:42.833Z,14.93
2018-10-04T22:31:13.739Z,16.27
2018-10-04T22:33:43.890Z,13.53
2018-10-04T22:36:14.009Z,14.93
2018-10-04T22:38:44.383Z,13.53
2018-10-04T22:41:15.941Z,13.90
2018-10-04T22:43:46.041Z,14.63
2018-10-04T22:46:16.168Z,11.83
2018-10-04T22:48:46.382Z,12.93
2018-10-04T22:51:16.507Z,12.53
2018-10-04T22:53:46.484Z,14.20
2018-10-04T22:56:16.525Z,14.13
2018-10-04T22:58:46.505Z,13.50
2018-10-04T23:01:16.527Z,15.57
2018-10-04T23:03:46.640Z,14.57
2018-10-04T23:06:16.822Z,11.50
2018-10-04T23:08:47.325Z,10.47
2018-10-04T23:11:17.339Z,10.90
2018-10-04T23:13:47.832Z,12.33
2018-10-04T23:16:17.882Z,12.17
2018-10-04T23:18:47.978Z,12.93
2018-10-04T23:21:18.499Z,14.40
2018-10-04T23:23:48.312Z,12.07
2018-10-04T23:26:18.400Z,12.60
2018-10-04T23:28:48.542Z,15.33
2018-10-04T23:31:18.558Z,15.17
2018-10-04T23:33:49.404Z,11.90
2018-10-04T23:36:20.443Z,12.27
2018-10-04T23:38:50.960Z,13.90
2018-10-04T23:41:21.499Z,11.47
2018-10-04T23:43:51.513Z,15.10
2018-10-04T23:46:21.657Z,14.43
2018-10-04T23:48:52.262Z,13.57
2018-10-04T23:51:22.298Z,13.67
2018-10-04T23:53:52.312Z,14.37
2018-10-04T23:56:22.927Z,13.07
2018-10-04T23:58:53.328Z,12.27
